sensor_id;sensor_type;location;lat;lon;timestamp;pressure;altitude;pressure_sealevel;temperature;humidity
56681;BME280;42558;52.388;13.390;2023-01-01T00:01:27;100639.31;;;14.51;73.92
56681;BME280;42558;52.388;13.390;2023-01-01T00:03:58;100647.81;;;14.40;74.52
56681;BME280;42558;52.388;13.390;2023-01-01T00:06:28;100650.84;;;14.35;74.44
56681;BME280;42558;52.388;13.390;2023-01-01T00:08:58;100651.54;;;14.38;73.95
56681;BME280;42558;52.388;13.390;2023-01-01T00:11:46;100654.27;;;14.69;71.80
56681;BME280;42558;52.388;13.390;2023-01-01T00:14:16;100654.81;;;14.67;71.64
56681;BME280;42558;52.388;13.390;2023-01-01T00:16:45;100658.19;;;14.63;71.39
56681;BME280;42558;52.388;13.390;2023-01-01T00:19:13;100659.98;;;14.60;71.24
56681;BME280;42558;52.388;13.390;2023-01-01T00:21:42;100656.77;;;14.63;70.81
56681;BME280;42558;52.388;13.390;2023-01-01T00:24:10;100665.63;;;14.63;70.75
56681;BME280;42558;52.388;13.390;2023-01-01T00:26:38;100665.92;;;14.74;69.53
56681;BME280;42558;52.388;13.390;2023-01-01T00:29:07;100668.59;;;14.71;69.39
56681;BME280;42558;52.388;13.390;2023-01-01T00:31:35;100673.21;;;14.65;69.79
56681;BME280;42558;52.388;13.390;2023-01-01T00:34:04;100676.94;;;14.64;69.42
56681;BME280;42558;52.388;13.390;2023-01-01T00:36:32;100674.07;;;14.76;68.68
56681;BME280;42558;52.388;13.390;2023-01-01T00:39:02;100678.30;;;14.77;67.96
56681;BME280;42558;52.388;13.390;2023-01-01T00:41:32;100680.39;;;14.84;67.42
56681;BME280;42558;52.388;13.390;2023-01-01T00:44:00;100677.78;;;14.76;67.58
56681;BME280;42558;52.388;13.390;2023-01-01T00:46:29;100675.09;;;14.82;66.95
56681;BME280;42558;52.388;13.390;2023-01-01T00:48:57;100676.52;;;14.79;67.00
56681;BME280;42558;52.388;13.390;2023-01-01T00:51:26;100673.88;;;14.76;66.90
56681;BME280;42558;52.388;13.390;2023-01-01T00:54:02;100669.41;;;14.83;66.22
56681;BME280;42558;52.388;13.390;2023-01-01T00:56:30;100673.17;;;14.78;66.45
56681;BME280;42558;52.388;13.390;2023-01-01T00:58:59;100674.98;;;14.66;66.95
56681;BME280;42558;52.388;13.390;2023-01-01T01:01:27;100684.20;;;14.64;66.74
56681;BME280;42558;52.388;13.390;2023-01-01T01:03:56;100682.38;;;14.77;65.85
56681;BME280;42558;52.388;13.390;2023-01-01T01:06:24;100689.80;;;14.77;65.64
56681;BME280;42558;52.388;13.390;2023-01-01T01:08:53;100689.84;;;14.67;65.90
56681;BME280;42558;52.388;13.390;2023-01-01T01:11:23;100685.84;;;14.91;64.24
56681;BME280;42558;52.388;13.390;2023-01-01T01:13:55;100683.30;;;15.03;63.48
56681;BME280;42558;52.388;13.390;2023-01-01T01:16:32;100688.54;;;14.82;64.52
56681;BME280;42558;52.388;13.390;2023-01-01T01:19:04;100691.67;;;14.91;63.62
56681;BME280;42558;52.388;13.390;2023-01-01T01:21:34;100688.19;;;14.81;64.29
56681;BME280;42558;52.388;13.390;2023-01-01T01:24:04;100689.79;;;14.82;63.84
56681;BME280;42558;52.388;13.390;2023-01-01T01:26:34;100688.39;;;14.79;63.88
56681;BME280;42558;52.388;13.390;2023-01-01T01:29:05;100689.61;;;14.82;63.65
56681;BME280;42558;52.388;13.390;2023-01-01T01:31:35;100692.41;;;14.87;63.32
56681;BME280;42558;52.388;13.390;2023-01-01T01:34:05;100697.13;;;14.97;62.67
56681;BME280;42558;52.388;13.390;2023-01-01T01:36:40;100688.52;;;14.84;62.93
56681;BME280;42558;52.388;13.390;2023-01-01T01:39:11;100686.50;;;15.00;62.06
56681;BME280;42558;52.388;13.390;2023-01-01T01:41:40;100693.06;;;14.99;62.22
56681;BME280;42558;52.388;13.390;2023-01-01T01:44:57;100697.52;;;14.91;62.41
56681;BME280;42558;52.388;13.390;2023-01-01T01:53:07;100690.28;;;14.88;62.31
56681;BME280;42558;52.388;13.390;2023-01-01T01:55:53;100689.91;;;14.90;62.31
56681;BME280;42558;52.388;13.390;2023-01-01T01:58:25;100689.13;;;14.70;63.18
56681;BME280;42558;52.388;13.390;2023-01-01T02:00:54;100679.80;;;14.60;63.35
56681;BME280;42558;52.388;13.390;2023-01-01T02:06:12;100692.67;;;14.69;62.84
56681;BME280;42558;52.388;13.390;2023-01-01T02:08:42;100691.46;;;14.62;63.28
56681;BME280;42558;52.388;13.390;2023-01-01T02:11:13;100692.72;;;14.59;63.18
56681;BME280;42558;52.388;13.390;2023-01-01T02:13:48;100696.75;;;14.67;62.82
56681;BME280;42558;52.388;13.390;2023-01-01T02:25:49;100687.56;;;14.64;62.97
56681;BME280;42558;52.388;13.390;2023-01-01T02:30:36;100696.77;;;14.62;62.92
56681;BME280;42558;52.388;13.390;2023-01-01T02:33:11;100695.16;;;14.66;62.47
56681;BME280;42558;52.388;13.390;2023-01-01T02:35:55;100688.57;;;14.76;61.84
56681;BME280;42558;52.388;13.390;2023-01-01T02:38:31;100684.38;;;14.66;62.27
56681;BME280;42558;52.388;13.390;2023-01-01T02:41:08;100687.52;;;14.74;61.94
56681;BME280;42558;52.388;13.390;2023-01-01T02:43:41;100692.32;;;14.67;62.15
56681;BME280;42558;52.388;13.390;2023-01-01T02:46:12;100689.33;;;14.65;62.12
56681;BME280;42558;52.388;13.390;2023-01-01T02:48:50;100685.04;;;14.72;61.72
56681;BME280;42558;52.388;13.390;2023-01-01T02:52:04;100686.79;;;14.78;61.59
56681;BME280;42558;52.388;13.390;2023-01-01T02:58:33;100681.37;;;14.65;61.96
56681;BME280;42558;52.388;13.390;2023-01-01T03:01:33;100681.04;;;14.60;61.99
56681;BME280;42558;52.388;13.390;2023-01-01T03:04:52;100679.11;;;14.55;62.35
56681;BME280;42558;52.388;13.390;2023-01-01T03:11:09;100695.93;;;14.45;62.98
56681;BME280;42558;52.388;13.390;2023-01-01T03:14:13;100688.30;;;14.44;62.99
56681;BME280;42558;52.388;13.390;2023-01-01T03:17:03;100700.34;;;14.54;62.51
56681;BME280;42558;52.388;13.390;2023-01-01T03:19:38;100701.92;;;14.53;62.72
56681;BME280;42558;52.388;13.390;2023-01-01T03:22:15;100702.83;;;14.40;63.35
56681;BME280;42558;52.388;13.390;2023-01-01T03:25:05;100703.17;;;14.47;63.21
56681;BME280;42558;52.388;13.390;2023-01-01T03:28:01;100706.01;;;14.52;62.80
56681;BME280;42558;52.388;13.390;2023-01-01T03:30:34;100708.48;;;14.53;62.77
56681;BME280;42558;52.388;13.390;2023-01-01T03:33:24;100705.31;;;14.43;63.22
56681;BME280;42558;52.388;13.390;2023-01-01T03:38:52;100711.33;;;14.34;63.63
56681;BME280;42558;52.388;13.390;2023-01-01T03:41:37;100721.45;;;14.15;64.61
56681;BME280;42558;52.388;13.390;2023-01-01T03:44:23;100713.16;;;14.07;64.87
56681;BME280;42558;52.388;13.390;2023-01-01T03:46:55;100706.10;;;14.01;65.38
56681;BME280;42558;52.388;13.390;2023-01-01T03:49:24;100705.75;;;13.94;65.57
56681;BME280;42558;52.388;13.390;2023-01-01T03:52:19;100716.18;;;13.89;65.84
56681;BME280;42558;52.388;13.390;2023-01-01T04:00:39;100740.73;;;13.55;67.58
56681;BME280;42558;52.388;13.390;2023-01-01T04:03:22;100744.45;;;13.60;67.23
56681;BME280;42558;52.388;13.390;2023-01-01T04:05:54;100741.80;;;13.58;67.34
56681;BME280;42558;52.388;13.390;2023-01-01T04:08:24;100738.80;;;13.57;67.00
56681;BME280;42558;52.388;13.390;2023-01-01T04:10:57;100744.45;;;13.62;67.13
56681;BME280;42558;52.388;13.390;2023-01-01T04:13:28;100741.97;;;13.50;67.63
56681;BME280;42558;52.388;13.390;2023-01-01T04:15:57;100751.50;;;13.49;67.58
56681;BME280;42558;52.388;13.390;2023-01-01T04:18:27;100759.23;;;13.28;68.51
56681;BME280;42558;52.388;13.390;2023-01-01T04:20:57;100765.25;;;13.28;68.57
56681;BME280;42558;52.388;13.390;2023-01-01T04:23:27;100769.14;;;13.35;68.47
56681;BME280;42558;52.388;13.390;2023-01-01T04:25:57;100773.54;;;13.29;68.61
56681;BME280;42558;52.388;13.390;2023-01-01T04:28:26;100770.55;;;13.30;68.70
56681;BME280;42558;52.388;13.390;2023-01-01T04:31:01;100768.96;;;13.36;67.72
56681;BME280;42558;52.388;13.390;2023-01-01T04:33:31;100778.68;;;13.39;67.79
56681;BME280;42558;52.388;13.390;2023-01-01T04:36:08;100777.77;;;13.25;68.39
56681;BME280;42558;52.388;13.390;2023-01-01T04:38:38;100782.38;;;13.37;67.96
56681;BME280;42558;52.388;13.390;2023-01-01T04:41:08;100780.79;;;13.32;68.49
56681;BME280;42558;52.388;13.390;2023-01-01T04:43:36;100780.39;;;13.23;68.28
56681;BME280;42558;52.388;13.390;2023-01-01T04:46:05;100786.41;;;13.23;68.64
56681;BME280;42558;52.388;13.390;2023-01-01T04:48:34;100784.05;;;13.15;69.00
56681;BME280;42558;52.388;13.390;2023-01-01T04:51:04;100786.21;;;13.21;68.58
56681;BME280;42558;52.388;13.390;2023-01-01T04:53:34;100783.27;;;13.35;67.90
56681;BME280;42558;52.388;13.390;2023-01-01T04:56:07;100787.27;;;13.21;68.88
56681;BME280;42558;52.388;13.390;2023-01-01T04:58:40;100786.36;;;13.16;69.08
56681;BME280;42558;52.388;13.390;2023-01-01T05:01:24;100787.75;;;13.15;68.95
56681;BME280;42558;52.388;13.390;2023-01-01T05:03:55;100795.27;;;13.35;68.04
56681;BME280;42558;52.388;13.390;2023-01-01T05:06:26;100792.09;;;13.34;68.03
56681;BME280;42558;52.388;13.390;2023-01-01T05:08:57;100792.63;;;13.32;67.94
56681;BME280;42558;52.388;13.390;2023-01-01T05:11:30;100795.27;;;13.31;68.38
56681;BME280;42558;52.388;13.390;2023-01-01T05:14:01;100791.15;;;13.21;69.12
56681;BME280;42558;52.388;13.390;2023-01-01T05:16:36;100791.75;;;12.98;70.20
56681;BME280;42558;52.388;13.390;2023-01-01T05:19:07;100791.38;;;12.90;70.78
56681;BME280;42558;52.388;13.390;2023-01-01T05:21:39;100788.52;;;12.83;71.58
56681;BME280;42558;52.388;13.390;2023-01-01T05:24:09;100785.83;;;12.75;72.00
56681;BME280;42558;52.388;13.390;2023-01-01T05:26:43;100790.36;;;12.64;72.64
56681;BME280;42558;52.388;13.390;2023-01-01T05:29:13;100792.81;;;12.60;72.80
56681;BME280;42558;52.388;13.390;2023-01-01T05:31:46;100793.55;;;12.69;72.46
56681;BME280;42558;52.388;13.390;2023-01-01T05:34:13;100799.92;;;12.72;72.15
56681;BME280;42558;52.388;13.390;2023-01-01T05:36:40;100799.73;;;12.70;72.37
56681;BME280;42558;52.388;13.390;2023-01-01T05:39:11;100801.28;;;12.60;73.32
56681;BME280;42558;52.388;13.390;2023-01-01T05:41:41;100803.73;;;12.60;73.19
56681;BME280;42558;52.388;13.390;2023-01-01T05:44:11;100803.08;;;12.69;72.98
56681;BME280;42558;52.388;13.390;2023-01-01T05:46:41;100806.40;;;12.64;73.56
56681;BME280;42558;52.388;13.390;2023-01-01T05:49:11;100800.58;;;12.63;73.32
56681;BME280;42558;52.388;13.390;2023-01-01T05:51:41;100806.46;;;12.73;72.87
56681;BME280;42558;52.388;13.390;2023-01-01T05:54:11;100804.11;;;12.97;72.22
56681;BME280;42558;52.388;13.390;2023-01-01T05:56:40;100805.30;;;12.89;72.62
56681;BME280;42558;52.388;13.390;2023-01-01T05:59:10;100803.52;;;12.84;72.74
56681;BME280;42558;52.388;13.390;2023-01-01T06:01:40;100803.85;;;12.81;73.03
56681;BME280;42558;52.388;13.390;2023-01-01T06:04:13;100798.23;;;12.86;73.14
56681;BME280;42558;52.388;13.390;2023-01-01T06:06:43;100798.25;;;12.88;72.86
56681;BME280;42558;52.388;13.390;2023-01-01T06:09:10;100801.26;;;12.89;73.13
56681;BME280;42558;52.388;13.390;2023-01-01T06:11:39;100805.48;;;12.91;73.34
56681;BME280;42558;52.388;13.390;2023-01-01T06:14:07;100803.55;;;12.92;73.20
56681;BME280;42558;52.388;13.390;2023-01-01T06:16:36;100805.32;;;12.91;73.58
56681;BME280;42558;52.388;13.390;2023-01-01T06:19:04;100803.11;;;12.74;74.24
56681;BME280;42558;52.388;13.390;2023-01-01T06:21:33;100807.35;;;12.74;74.33
56681;BME280;42558;52.388;13.390;2023-01-01T06:24:01;100812.34;;;12.84;73.96
56681;BME280;42558;52.388;13.390;2023-01-01T06:26:31;100815.34;;;12.87;73.87
56681;BME280;42558;52.388;13.390;2023-01-01T06:29:02;100821.90;;;12.91;73.84
56681;BME280;42558;52.388;13.390;2023-01-01T06:31:33;100829.11;;;12.88;73.82
56681;BME280;42558;52.388;13.390;2023-01-01T06:34:09;100835.31;;;12.93;73.40
56681;BME280;42558;52.388;13.390;2023-01-01T06:36:39;100835.50;;;12.94;73.49
56681;BME280;42558;52.388;13.390;2023-01-01T06:39:09;100838.15;;;12.95;73.30
56681;BME280;42558;52.388;13.390;2023-01-01T06:41:39;100835.05;;;13.06;73.09
56681;BME280;42558;52.388;13.390;2023-01-01T06:44:08;100839.48;;;13.13;71.92
56681;BME280;42558;52.388;13.390;2023-01-01T06:46:38;100841.07;;;13.14;72.01
56681;BME280;42558;52.388;13.390;2023-01-01T06:49:11;100840.02;;;13.14;71.92
56681;BME280;42558;52.388;13.390;2023-01-01T06:56:02;100845.13;;;13.13;71.40
56681;BME280;42558;52.388;13.390;2023-01-01T06:58:30;100847.23;;;13.11;71.85
56681;BME280;42558;52.388;13.390;2023-01-01T07:01:10;100853.90;;;13.00;71.95
56681;BME280;42558;52.388;13.390;2023-01-01T07:03:40;100849.67;;;13.07;71.33
56681;BME280;42558;52.388;13.390;2023-01-01T07:06:09;100850.70;;;13.30;69.85
56681;BME280;42558;52.388;13.390;2023-01-01T07:08:39;100850.50;;;13.24;70.27
56681;BME280;42558;52.388;13.390;2023-01-01T07:11:09;100853.67;;;13.24;70.04
56681;BME280;42558;52.388;13.390;2023-01-01T07:13:39;100854.90;;;13.24;70.24
56681;BME280;42558;52.388;13.390;2023-01-01T07:16:09;100858.02;;;13.13;70.93
56681;BME280;42558;52.388;13.390;2023-01-01T07:18:42;100858.98;;;13.23;69.87
56681;BME280;42558;52.388;13.390;2023-01-01T07:24:11;100869.27;;;13.36;69.02
56681;BME280;42558;52.388;13.390;2023-01-01T07:26:42;100874.02;;;13.30;69.21
56681;BME280;42558;52.388;13.390;2023-01-01T07:29:13;100876.96;;;13.20;69.86
56681;BME280;42558;52.388;13.390;2023-01-01T07:31:44;100882.31;;;13.29;69.45
56681;BME280;42558;52.388;13.390;2023-01-01T07:34:16;100879.12;;;13.27;69.64
56681;BME280;42558;52.388;13.390;2023-01-01T07:36:48;100880.41;;;13.38;68.72
56681;BME280;42558;52.388;13.390;2023-01-01T07:39:18;100889.29;;;13.52;68.51
56681;BME280;42558;52.388;13.390;2023-01-01T07:41:48;100892.48;;;13.55;67.66
56681;BME280;42558;52.388;13.390;2023-01-01T07:44:16;100890.07;;;13.75;66.83
56681;BME280;42558;52.388;13.390;2023-01-01T07:46:44;100889.70;;;13.70;67.26
56681;BME280;42558;52.388;13.390;2023-01-01T07:49:13;100888.48;;;13.77;66.99
56681;BME280;42558;52.388;13.390;2023-01-01T07:51:41;100893.08;;;13.78;66.92
56681;BME280;42558;52.388;13.390;2023-01-01T07:54:10;100901.92;;;13.81;66.87
56681;BME280;42558;52.388;13.390;2023-01-01T07:56:38;100914.98;;;13.72;67.44
56681;BME280;42558;52.388;13.390;2023-01-01T07:59:06;100919.38;;;13.69;67.29
56681;BME280;42558;52.388;13.390;2023-01-01T08:01:36;100928.40;;;13.72;67.52
56681;BME280;42558;52.388;13.390;2023-01-01T08:04:07;100924.55;;;13.86;66.92
56681;BME280;42558;52.388;13.390;2023-01-01T08:06:36;100926.35;;;13.98;66.06
56681;BME280;42558;52.388;13.390;2023-01-01T08:09:06;100928.11;;;13.91;66.61
56681;BME280;42558;52.388;13.390;2023-01-01T08:11:36;100922.98;;;13.97;66.32
56681;BME280;42558;52.388;13.390;2023-01-01T08:14:06;100935.19;;;13.96;66.20
56681;BME280;42558;52.388;13.390;2023-01-01T08:16:35;100931.83;;;13.96;66.43
56681;BME280;42558;52.388;13.390;2023-01-01T08:19:05;100932.88;;;13.94;66.47
56681;BME280;42558;52.388;13.390;2023-01-01T08:21:35;100936.45;;;14.03;66.05
56681;BME280;42558;52.388;13.390;2023-01-01T08:24:05;100930.42;;;14.01;66.08
56681;BME280;42558;52.388;13.390;2023-01-01T08:26:35;100931.33;;;14.07;65.72
56681;BME280;42558;52.388;13.390;2023-01-01T08:29:06;100940.86;;;14.01;65.99
56681;BME280;42558;52.388;13.390;2023-01-01T08:31:35;100948.29;;;14.03;66.15
56681;BME280;42558;52.388;13.390;2023-01-01T08:34:05;100944.95;;;14.10;65.84
56681;BME280;42558;52.388;13.390;2023-01-01T08:36:36;100948.48;;;14.09;65.86
56681;BME280;42558;52.388;13.390;2023-01-01T08:39:09;100960.69;;;14.14;65.65
56681;BME280;42558;52.388;13.390;2023-01-01T08:41:39;100967.75;;;14.10;66.14
56681;BME280;42558;52.388;13.390;2023-01-01T08:44:08;100961.38;;;14.05;66.37
56681;BME280;42558;52.388;13.390;2023-01-01T08:46:37;100958.74;;;14.15;65.78
56681;BME280;42558;52.388;13.390;2023-01-01T08:49:05;100964.23;;;14.13;65.76
56681;BME280;42558;52.388;13.390;2023-01-01T08:51:34;100975.02;;;14.14;65.95
56681;BME280;42558;52.388;13.390;2023-01-01T08:54:03;100976.27;;;14.20;65.89
56681;BME280;42558;52.388;13.390;2023-01-01T08:56:31;100973.11;;;14.32;65.15
56681;BME280;42558;52.388;13.390;2023-01-01T08:58:59;100980.35;;;14.29;65.38
56681;BME280;42558;52.388;13.390;2023-01-01T09:01:30;100978.05;;;14.28;65.48
56681;BME280;42558;52.388;13.390;2023-01-01T09:03:59;100983.02;;;14.31;65.32
56681;BME280;42558;52.388;13.390;2023-01-01T09:06:27;100985.66;;;14.36;64.85
56681;BME280;42558;52.388;13.390;2023-01-01T09:08:56;100988.33;;;14.36;65.18
56681;BME280;42558;52.388;13.390;2023-01-01T09:11:27;100990.62;;;14.35;64.97
56681;BME280;42558;52.388;13.390;2023-01-01T09:13:57;101002.30;;;14.39;64.90
56681;BME280;42558;52.388;13.390;2023-01-01T09:16:27;101002.47;;;14.35;65.32
56681;BME280;42558;52.388;13.390;2023-01-01T09:18:57;101016.08;;;14.32;65.41
56681;BME280;42558;52.388;13.390;2023-01-01T09:21:27;101020.33;;;14.32;65.38
56681;BME280;42558;52.388;13.390;2023-01-01T09:23:57;101023.50;;;14.31;65.61
56681;BME280;42558;52.388;13.390;2023-01-01T09:26:26;101029.34;;;14.28;65.60
56681;BME280;42558;52.388;13.390;2023-01-01T09:28:57;101036.59;;;14.27;65.70
56681;BME280;42558;52.388;13.390;2023-01-01T09:31:27;101040.13;;;14.25;66.08
56681;BME280;42558;52.388;13.390;2023-01-01T09:33:56;101038.33;;;14.21;66.05
56681;BME280;42558;52.388;13.390;2023-01-01T09:36:31;101039.58;;;14.21;66.22
56681;BME280;42558;52.388;13.390;2023-01-01T09:39:02;101044.71;;;14.24;65.95
56681;BME280;42558;52.388;13.390;2023-01-01T09:42:34;101044.35;;;14.22;66.51
56681;BME280;42558;52.388;13.390;2023-01-01T09:45:29;101035.88;;;14.28;66.02
56681;BME280;42558;52.388;13.390;2023-01-01T09:48:10;101031.82;;;14.28;66.17
56681;BME280;42558;52.388;13.390;2023-01-01T09:50:44;101029.17;;;14.36;66.04
56681;BME280;42558;52.388;13.390;2023-01-01T09:53:59;101039.84;;;14.45;65.54
56681;BME280;42558;52.388;13.390;2023-01-01T09:56:34;101028.55;;;14.50;65.49
56681;BME280;42558;52.388;13.390;2023-01-01T09:59:09;101029.79;;;14.56;65.27
56681;BME280;42558;52.388;13.390;2023-01-01T10:01:55;101030.50;;;14.65;65.06
56681;BME280;42558;52.388;13.390;2023-01-01T10:10:43;101043.61;;;14.76;64.95
56681;BME280;42558;52.388;13.390;2023-01-01T10:13:40;101043.59;;;14.70;65.39
56681;BME280;42558;52.388;13.390;2023-01-01T10:16:30;101048.90;;;14.61;66.18
56681;BME280;42558;52.388;13.390;2023-01-01T10:19:23;101046.08;;;14.64;65.55
56681;BME280;42558;52.388;13.390;2023-01-01T10:22:02;101048.04;;;14.72;65.45
56681;BME280;42558;52.388;13.390;2023-01-01T10:24:44;101042.73;;;14.78;65.10
56681;BME280;42558;52.388;13.390;2023-01-01T10:27:38;101046.10;;;14.79;65.38
56681;BME280;42558;52.388;13.390;2023-01-01T10:30:20;101040.61;;;14.79;65.35
56681;BME280;42558;52.388;13.390;2023-01-01T10:32:53;101047.34;;;14.89;65.05
56681;BME280;42558;52.388;13.390;2023-01-01T10:35:39;101052.48;;;15.08;64.70
56681;BME280;42558;52.388;13.390;2023-01-01T10:38:23;101056.73;;;15.01;64.13
56681;BME280;42558;52.388;13.390;2023-01-01T10:41:06;101068.23;;;14.93;65.08
56681;BME280;42558;52.388;13.390;2023-01-01T10:43:47;101071.25;;;14.94;64.49
56681;BME280;42558;52.388;13.390;2023-01-01T10:46:22;101075.33;;;14.93;65.15
56681;BME280;42558;52.388;13.390;2023-01-01T10:49:12;101078.86;;;14.95;64.60
56681;BME280;42558;52.388;13.390;2023-01-01T10:51:52;101081.69;;;14.90;65.15
56681;BME280;42558;52.388;13.390;2023-01-01T10:54:38;101076.73;;;14.89;65.53
56681;BME280;42558;52.388;13.390;2023-01-01T10:57:28;101071.07;;;14.90;65.30
56681;BME280;42558;52.388;13.390;2023-01-01T11:03:23;101067.00;;;14.96;64.55
56681;BME280;42558;52.388;13.390;2023-01-01T11:08:55;101060.27;;;14.97;64.36
56681;BME280;42558;52.388;13.390;2023-01-01T11:11:28;101068.77;;;15.02;64.01
56681;BME280;42558;52.388;13.390;2023-01-01T11:14:02;101076.38;;;15.00;64.54
56681;BME280;42558;52.388;13.390;2023-01-01T11:16:38;101076.02;;;14.98;64.29
56681;BME280;42558;52.388;13.390;2023-01-01T11:19:36;101084.34;;;14.96;64.82
56681;BME280;42558;52.388;13.390;2023-01-01T11:22:35;101089.48;;;14.94;64.64
56681;BME280;42558;52.388;13.390;2023-01-01T11:25:29;101095.85;;;14.96;64.38
56681;BME280;42558;52.388;13.390;2023-01-01T11:28:19;101105.23;;;14.87;64.68
56681;BME280;42558;52.388;13.390;2023-01-01T11:33:52;101110.17;;;14.82;64.60
56681;BME280;42558;52.388;13.390;2023-01-01T11:36:28;101109.98;;;14.78;65.06
56681;BME280;42558;52.388;13.390;2023-01-01T11:39:26;101103.44;;;14.79;64.92
56681;BME280;42558;52.388;13.390;2023-01-01T11:41:57;101097.25;;;14.83;64.76
56681;BME280;42558;52.388;13.390;2023-01-01T11:44:51;101102.56;;;14.82;65.12
56681;BME280;42558;52.388;13.390;2023-01-01T11:47:39;101092.66;;;14.79;65.67
56681;BME280;42558;52.388;13.390;2023-01-01T11:50:29;101089.46;;;14.81;65.44
56681;BME280;42558;52.388;13.390;2023-01-01T12:01:25;101108.42;;;14.87;65.35
56681;BME280;42558;52.388;13.390;2023-01-01T12:04:08;101115.34;;;14.94;64.85
56681;BME280;42558;52.388;13.390;2023-01-01T12:12:32;101117.80;;;14.91;65.22
56681;BME280;42558;52.388;13.390;2023-01-01T12:15:56;101118.69;;;14.88;65.57
56681;BME280;42558;52.388;13.390;2023-01-01T12:18:16;101119.21;;;14.83;65.94
56681;BME280;42558;52.388;13.390;2023-01-01T12:20:59;101120.98;;;14.83;65.96
56681;BME280;42558;52.388;13.390;2023-01-01T12:23:30;101122.38;;;14.76;66.41
56681;BME280;42558;52.388;13.390;2023-01-01T12:26:14;101117.23;;;14.70;67.02
56681;BME280;42558;52.388;13.390;2023-01-01T12:31:58;101123.24;;;14.67;67.42
56681;BME280;42558;52.388;13.390;2023-01-01T12:35:20;101125.00;;;14.63;67.67
56681;BME280;42558;52.388;13.390;2023-01-01T12:41:34;101120.38;;;14.53;68.34
56681;BME280;42558;52.388;13.390;2023-01-01T12:57:34;101095.91;;;14.46;69.14
56681;BME280;42558;52.388;13.390;2023-01-01T13:00:17;101093.77;;;14.45;69.11
56681;BME280;42558;52.388;13.390;2023-01-01T13:02:54;101104.02;;;14.39;69.52
56681;BME280;42558;52.388;13.390;2023-01-01T13:05:42;101106.86;;;14.42;69.00
56681;BME280;42558;52.388;13.390;2023-01-01T13:08:12;101105.61;;;14.39;69.25
56681;BME280;42558;52.388;13.390;2023-01-01T13:10:46;101110.74;;;14.42;69.17
56681;BME280;42558;52.388;13.390;2023-01-01T13:13:18;101114.63;;;14.41;69.22
56681;BME280;42558;52.388;13.390;2023-01-01T13:15:57;101111.07;;;14.34;69.77
56681;BME280;42558;52.388;13.390;2023-01-01T13:18:32;101112.66;;;14.35;69.86
56681;BME280;42558;52.388;13.390;2023-01-01T13:23:48;101130.33;;;14.27;70.35
56681;BME280;42558;52.388;13.390;2023-01-01T13:35:01;101156.85;;;14.24;70.79
56681;BME280;42558;52.388;13.390;2023-01-01T13:37:41;101152.73;;;14.16;70.99
56681;BME280;42558;52.388;13.390;2023-01-01T13:45:41;101173.63;;;14.22;71.10
56681;BME280;42558;52.388;13.390;2023-01-01T14:01:42;101210.05;;;13.94;73.56
56681;BME280;42558;52.388;13.390;2023-01-01T14:04:42;101211.17;;;14.03;72.64
56681;BME280;42558;52.388;13.390;2023-01-01T14:07:26;101219.36;;;14.11;72.28
56681;BME280;42558;52.388;13.390;2023-01-01T14:13:15;101232.51;;;13.95;73.67
56681;BME280;42558;52.388;13.390;2023-01-01T14:15:52;101229.91;;;14.00;72.96
56681;BME280;42558;52.388;13.390;2023-01-01T14:18:33;101229.17;;;13.99;73.74
56681;BME280;42558;52.388;13.390;2023-01-01T14:21:28;101230.55;;;13.92;73.80
56681;BME280;42558;52.388;13.390;2023-01-01T14:24:05;101238.33;;;13.92;74.15
56681;BME280;42558;52.388;13.390;2023-01-01T14:26:38;101234.98;;;13.94;74.07
56681;BME280;42558;52.388;13.390;2023-01-01T14:29:16;101230.00;;;13.88;74.66
56681;BME280;42558;52.388;13.390;2023-01-01T14:31:46;101227.84;;;13.86;74.48
56681;BME280;42558;52.388;13.390;2023-01-01T14:34:26;101221.19;;;13.93;74.16
56681;BME280;42558;52.388;13.390;2023-01-01T14:37:00;101224.10;;;13.81;75.19
56681;BME280;42558;52.388;13.390;2023-01-01T14:39:34;101224.46;;;13.83;74.85
56681;BME280;42558;52.388;13.390;2023-01-01T14:42:12;101225.48;;;13.78;74.82
56681;BME280;42558;52.388;13.390;2023-01-01T14:44:48;101220.66;;;13.71;75.43
56681;BME280;42558;52.388;13.390;2023-01-01T14:47:26;101222.39;;;13.65;75.81
56681;BME280;42558;52.388;13.390;2023-01-01T14:50:21;101228.65;;;13.54;76.29
56681;BME280;42558;52.388;13.390;2023-01-01T14:53:06;101237.26;;;13.50;76.40
56681;BME280;42558;52.388;13.390;2023-01-01T14:55:43;101239.33;;;13.44;77.04
56681;BME280;42558;52.388;13.390;2023-01-01T14:58:26;101243.18;;;13.41;77.05
56681;BME280;42558;52.388;13.390;2023-01-01T15:01:21;101245.10;;;13.38;77.10
56681;BME280;42558;52.388;13.390;2023-01-01T15:04:11;101241.88;;;13.33;77.54
56681;BME280;42558;52.388;13.390;2023-01-01T15:06:44;101238.05;;;13.39;77.10
56681;BME280;42558;52.388;13.390;2023-01-01T15:09:15;101245.46;;;13.40;77.39
56681;BME280;42558;52.388;13.390;2023-01-01T15:11:45;101254.46;;;13.38;77.41
56681;BME280;42558;52.388;13.390;2023-01-01T15:14:35;101254.17;;;13.27;77.51
56681;BME280;42558;52.388;13.390;2023-01-01T15:17:14;101261.08;;;13.16;77.99
56681;BME280;42558;52.388;13.390;2023-01-01T15:19:45;101272.44;;;13.06;79.04
56681;BME280;42558;52.388;13.390;2023-01-01T15:22:35;101279.25;;;13.00;79.44
56681;BME280;42558;52.388;13.390;2023-01-01T15:25:15;101274.95;;;12.94;79.59
56681;BME280;42558;52.388;13.390;2023-01-01T15:27:51;101280.77;;;12.94;79.81
56681;BME280;42558;52.388;13.390;2023-01-01T15:30:27;101285.06;;;12.98;79.83